createdAt,value
2022-12-14T00:01:39.262Z,96777.69
2022-12-14T00:04:05.886Z,96763.28
2022-12-14T00:06:32.585Z,96765.47
2022-12-14T00:08:59.240Z,96756.72
2022-12-14T00:11:25.911Z,96761.09
2022-12-14T00:13:52.549Z,96765.84
2022-12-14T00:16:19.343Z,96755.22
2022-12-14T00:18:46.010Z,96750.50
2022-12-14T00:21:12.693Z,96746.41
2022-12-14T00:23:39.481Z,96738.44
2022-12-14T00:26:06.104Z,96737.16
2022-12-14T00:28:32.774Z,96734.06
2022-12-14T00:30:59.412Z,96736.94
2022-12-14T00:33:26.061Z,96733.41
2022-12-14T00:35:52.705Z,96733.25
2022-12-14T00:38:19.387Z,96736.94
2022-12-14T00:40:46.010Z,96732.28
2022-12-14T00:43:12.656Z,96723.00
2022-12-14T00:45:39.250Z,96720.69
2022-12-14T00:48:05.912Z,96707.91
2022-12-14T00:50:32.520Z,96719.72
2022-12-14T00:52:59.187Z,96718.28
2022-12-14T00:55:25.852Z,96717.75
2022-12-14T00:57:52.519Z,96717.34
2022-12-14T01:00:19.209Z,96715.97
2022-12-14T01:02:45.915Z,96710.34
2022-12-14T01:05:12.621Z,96712.22
2022-12-14T01:07:39.253Z,96710.31
2022-12-14T01:10:05.909Z,96713.84
2022-12-14T01:12:32.500Z,96699.53
2022-12-14T01:14:59.171Z,96705.03
2022-12-14T01:17:25.823Z,96702.25
2022-12-14T01:19:52.475Z,96707.28
2022-12-14T01:22:19.117Z,96709.78
2022-12-14T01:24:45.756Z,96707.56
2022-12-14T01:27:12.430Z,96697.97
2022-12-14T01:29:39.071Z,96697.00
2022-12-14T01:32:05.715Z,96700.84
2022-12-14T01:34:32.376Z,96690.25
2022-12-14T01:36:59.091Z,96691.75
2022-12-14T01:39:25.814Z,96684.06
2022-12-14T01:41:52.458Z,96692.44
2022-12-14T01:44:19.117Z,96683.34
2022-12-14T01:46:45.829Z,96688.44
2022-12-14T01:49:12.481Z,96685.84
2022-12-14T01:51:39.677Z,96688.25
2022-12-14T01:54:06.359Z,96684.22
2022-12-14T01:56:32.997Z,96682.50
2022-12-14T01:58:59.686Z,96688.75
2022-12-14T02:01:26.431Z,96687.19
2022-12-14T02:03:53.163Z,96690.47
2022-12-14T02:06:19.785Z,96687.78
2022-12-14T02:08:46.381Z,96688.69
2022-12-14T02:11:14.252Z,96694.97
2022-12-14T02:13:40.932Z,96687.03
2022-12-14T02:16:07.600Z,96686.19
2022-12-14T02:18:34.290Z,96676.75
2022-12-14T02:21:00.977Z,96675.31
2022-12-14T02:23:27.951Z,96657.41
2022-12-14T02:25:54.862Z,96661.41
2022-12-14T02:28:21.517Z,96660.75
2022-12-14T02:30:48.111Z,96655.81
2022-12-14T02:33:14.740Z,96654.91
2022-12-14T02:35:41.384Z,96647.81
2022-12-14T02:38:08.022Z,96656.28
2022-12-14T02:40:34.627Z,96658.94
2022-12-14T02:43:01.303Z,96653.38
2022-12-14T02:45:27.935Z,96649.72
2022-12-14T02:47:54.671Z,96656.47
2022-12-14T02:50:21.328Z,96652.66
2022-12-14T02:52:47.962Z,96661.25
2022-12-14T02:55:14.634Z,96654.97
2022-12-14T02:57:41.297Z,96650.84
2022-12-14T03:00:07.978Z,96647.03
2022-12-14T03:02:34.754Z,96648.88
2022-12-14T03:05:01.458Z,96626.59
2022-12-14T03:07:28.279Z,96622.84
2022-12-14T03:09:54.985Z,96624.03
2022-12-14T03:12:21.610Z,96619.16
2022-12-14T03:14:48.195Z,96613.91
2022-12-14T03:17:19.207Z,96616.22
2022-12-14T03:19:46.385Z,96606.41
2022-12-14T03:22:15.708Z,96601.06
2022-12-14T03:24:42.295Z,96589.44
2022-12-14T03:27:08.914Z,96600.25
2022-12-14T03:29:35.546Z,96595.97
2022-12-14T03:32:02.185Z,96595.66
2022-12-14T03:34:28.855Z,96583.22
2022-12-14T03:36:55.521Z,96587.59
2022-12-14T03:39:22.198Z,96588.09
2022-12-14T03:41:49.206Z,96602.25
2022-12-14T03:44:16.105Z,96588.91
2022-12-14T03:46:42.713Z,96591.97
2022-12-14T03:49:09.355Z,96591.22
2022-12-14T03:51:36.028Z,96589.31
2022-12-14T03:54:02.691Z,96583.97
2022-12-14T03:56:29.370Z,96588.50
2022-12-14T03:58:57.443Z,96577.59
2022-12-14T04:01:24.315Z,96572.19
2022-12-14T04:03:51.084Z,96577.66
2022-12-14T04:06:17.758Z,96584.53
2022-12-14T04:08:44.360Z,96594.06
2022-12-14T04:11:10.976Z,96607.84
2022-12-14T04:13:37.627Z,96603.25
2022-12-14T04:16:04.273Z,96614.00
2022-12-14T04:18:30.935Z,96612.09
2022-12-14T04:20:57.561Z,96602.91
2022-12-14T04:26:08.675Z,96587.91
2022-12-14T04:28:35.351Z,96592.47
2022-12-14T04:31:01.996Z,96580.25
2022-12-14T04:33:28.948Z,96582.34
2022-12-14T04:35:55.930Z,96569.59
2022-12-14T04:38:22.551Z,96573.25
2022-12-14T04:40:49.228Z,96576.53
2022-12-14T04:43:15.905Z,96566.66
2022-12-14T04:45:42.631Z,96548.06
2022-12-14T04:48:09.311Z,96544.22
2022-12-14T04:50:35.942Z,96545.13
2022-12-14T04:53:02.587Z,96537.13
2022-12-14T04:55:29.225Z,96538.44
2022-12-14T04:57:56.138Z,96539.09
2022-12-14T05:00:22.823Z,96547.66
2022-12-14T05:02:49.506Z,96552.22
2022-12-14T05:05:16.160Z,96543.84
2022-12-14T05:07:42.809Z,96536.25
2022-12-14T05:10:09.514Z,96537.06
2022-12-14T05:12:36.188Z,96538.47
2022-12-14T05:15:02.807Z,96534.63
2022-12-14T05:17:29.490Z,96543.72
2022-12-14T05:19:56.102Z,96550.94
2022-12-14T05:22:22.804Z,96543.84
2022-12-14T05:24:49.422Z,96542.56
2022-12-14T05:27:16.040Z,96533.66
2022-12-14T05:29:42.710Z,96523.50
2022-12-14T05:32:09.406Z,96513.13
2022-12-14T05:34:36.002Z,96518.13
2022-12-14T05:37:02.643Z,96522.44
2022-12-14T05:39:29.343Z,96527.53
2022-12-14T05:41:55.982Z,96527.09
2022-12-14T05:44:22.639Z,96525.25
2022-12-14T05:46:49.294Z,96521.34
2022-12-14T05:49:15.934Z,96528.13
2022-12-14T05:51:42.624Z,96535.75
2022-12-14T05:54:09.297Z,96514.44
2022-12-14T05:56:35.987Z,96506.47
2022-12-14T05:59:02.650Z,96497.28
2022-12-14T06:01:29.335Z,96500.00
2022-12-14T06:03:56.097Z,96484.72
2022-12-14T06:06:22.703Z,96467.56
2022-12-14T06:08:49.292Z,96475.16
2022-12-14T06:11:15.915Z,96467.81
2022-12-14T06:13:42.562Z,96468.63
2022-12-14T06:16:09.303Z,96487.72
2022-12-14T06:18:35.957Z,96475.81
2022-12-14T06:21:02.672Z,96501.03
2022-12-14T06:23:29.556Z,96511.59
2022-12-14T06:25:56.432Z,96514.44
2022-12-14T06:28:23.052Z,96520.59
2022-12-14T06:30:49.751Z,96513.38
2022-12-14T06:33:16.432Z,96528.75
2022-12-14T06:35:43.094Z,96535.63
2022-12-14T06:38:09.769Z,96522.00
2022-12-14T06:40:36.371Z,96517.44
2022-12-14T06:43:03.005Z,96523.56
2022-12-14T06:45:29.673Z,96528.13
2022-12-14T06:47:56.410Z,96505.81
2022-12-14T06:50:23.061Z,96497.53
2022-12-14T06:52:49.703Z,96491.72
2022-12-14T06:55:16.397Z,96499.91
2022-12-14T06:57:43.112Z,96489.94
2022-12-14T07:00:09.815Z,96497.41
2022-12-14T07:02:36.630Z,96495.56
2022-12-14T07:05:03.420Z,96504.00
2022-12-14T07:07:30.049Z,96504.41
2022-12-14T07:09:56.757Z,96496.06
2022-12-14T07:12:23.359Z,96508.00
2022-12-14T07:14:49.999Z,96498.03
2022-12-14T07:17:16.647Z,96501.75
2022-12-14T07:19:43.336Z,96495.69
2022-12-14T07:22:09.983Z,96499.16
2022-12-14T07:24:36.617Z,96500.81
2022-12-14T07:27:03.271Z,96496.16
2022-12-14T07:29:34.492Z,96500.53
2022-12-14T07:32:01.415Z,96498.81
2022-12-14T07:34:28.078Z,96505.97
2022-12-14T07:36:54.691Z,96499.66
2022-12-14T07:39:21.379Z,96503.94
2022-12-14T07:41:48.007Z,96504.16
2022-12-14T07:44:14.732Z,96497.03
2022-12-14T07:46:41.468Z,96498.38
2022-12-14T07:49:08.278Z,96494.31
2022-12-14T07:51:34.919Z,96513.28
2022-12-14T07:54:01.569Z,96512.00
2022-12-14T07:56:28.186Z,96514.03
2022-12-14T07:58:54.822Z,96507.06
2022-12-14T08:01:22.653Z,96511.59
2022-12-14T08:03:49.335Z,96505.75
2022-12-14T08:06:15.965Z,96500.66
2022-12-14T08:08:42.644Z,96504.25
2022-12-14T08:11:09.397Z,96498.84
2022-12-14T08:13:36.002Z,96511.28
2022-12-14T08:16:02.697Z,96509.16
2022-12-14T08:18:29.415Z,96512.66
2022-12-14T08:20:56.018Z,96505.66
2022-12-14T08:23:22.653Z,96500.59
2022-12-14T08:25:49.328Z,96500.06
2022-12-14T08:28:15.980Z,96491.72
2022-12-14T08:30:42.652Z,96489.34
2022-12-14T08:33:09.323Z,96496.16
2022-12-14T08:35:36.093Z,96503.97
2022-12-14T08:38:02.715Z,96499.09
2022-12-14T08:40:29.347Z,96491.00
2022-12-14T08:42:55.980Z,96486.75
2022-12-14T08:45:22.593Z,96486.75
2022-12-14T08:47:49.255Z,96491.94
2022-12-14T08:50:15.907Z,96493.41
2022-12-14T08:52:42.575Z,96485.91
2022-12-14T08:55:09.236Z,96492.13
2022-12-14T08:57:35.839Z,96485.78
2022-12-14T09:00:03.018Z,96485.13
2022-12-14T09:02:30.024Z,96489.59
2022-12-14T09:04:56.789Z,96483.78
2022-12-14T09:07:23.430Z,96499.75
2022-12-14T09:09:50.172Z,96499.09
2022-12-14T09:12:16.811Z,96497.94
2022-12-14T09:14:43.426Z,96496.66
2022-12-14T09:17:10.083Z,96501.03
2022-12-14T09:19:36.725Z,96496.41
2022-12-14T09:22:03.443Z,96492.59
2022-12-14T09:24:30.113Z,96488.72
2022-12-14T09:26:56.742Z,96483.31
2022-12-14T09:29:23.380Z,96485.06
2022-12-14T09:31:50.044Z,96482.47
2022-12-14T09:34:16.750Z,96481.22
2022-12-14T09:36:43.610Z,96480.88
2022-12-14T09:39:10.290Z,96480.88
2022-12-14T09:41:36.929Z,96472.16
2022-12-14T09:44:03.665Z,96465.00
2022-12-14T09:46:30.339Z,96463.84
2022-12-14T09:48:56.950Z,96460.03
2022-12-14T09:51:23.607Z,96442.31
2022-12-14T09:53:50.330Z,96443.03
2022-12-14T09:56:16.977Z,96445.38
2022-12-14T09:58:43.652Z,96446.19
2022-12-14T10:01:10.446Z,96447.59
2022-12-14T10:03:37.673Z,96437.00
2022-12-14T10:06:04.576Z,96442.22
2022-12-14T10:08:31.780Z,96432.84
2022-12-14T10:10:58.846Z,96430.56
2022-12-14T10:13:25.466Z,96426.22
2022-12-14T10:15:52.147Z,96425.22
2022-12-14T10:18:41.369Z,96413.22
2022-12-14T10:21:05.481Z,96406.25
2022-12-14T10:23:32.179Z,96399.66
2022-12-14T10:25:58.825Z,96398.53
2022-12-14T10:28:25.446Z,96395.34
2022-12-14T10:33:36.481Z,96389.56
2022-12-14T10:36:03.169Z,96375.78
2022-12-14T10:38:30.245Z,96361.56
2022-12-14T10:40:57.132Z,96355.84
2022-12-14T10:43:23.762Z,96356.78
2022-12-14T10:45:50.533Z,96339.56
2022-12-14T10:48:17.268Z,96338.09
2022-12-14T10:50:43.915Z,96330.69
2022-12-14T10:53:16.556Z,96332.16
2022-12-14T10:55:43.213Z,96325.09
2022-12-14T10:58:09.902Z,96320.53
2022-12-14T11:00:36.585Z,96312.53
2022-12-14T11:03:03.328Z,96305.34
2022-12-14T11:05:36.171Z,96298.88
2022-12-14T11:08:03.479Z,96293.16
2022-12-14T11:10:30.229Z,96284.53
2022-12-14T11:12:56.864Z,96284.22
2022-12-14T11:15:23.452Z,96282.00
2022-12-14T11:17:50.195Z,96277.09
2022-12-14T11:20:16.914Z,96273.56
2022-12-14T11:22:43.590Z,96269.06
2022-12-14T11:25:10.187Z,96260.34
2022-12-14T11:27:36.872Z,96255.50
2022-12-14T11:30:03.473Z,96258.03
2022-12-14T11:32:30.134Z,96247.38
2022-12-14T11:34:56.737Z,96246.56
2022-12-14T11:37:23.346Z,96234.94
2022-12-14T11:39:50.054Z,96237.13
2022-12-14T11:42:16.696Z,96232.34
2022-12-14T11:44:43.310Z,96234.97
2022-12-14T11:47:09.901Z,96224.97
2022-12-14T11:49:36.555Z,96219.38
2022-12-14T11:52:03.226Z,96215.03
2022-12-14T11:54:29.814Z,96207.44
2022-12-14T11:56:56.485Z,96198.31
2022-12-14T11:59:23.119Z,96189.16
2022-12-14T12:01:49.826Z,96184.31
2022-12-14T12:04:16.584Z,96176.88
2022-12-14T12:06:43.259Z,96162.13
2022-12-14T12:09:10.881Z,96161.94
2022-12-14T12:11:37.487Z,96150.50
2022-12-14T12:14:04.147Z,96149.91
2022-12-14T12:16:30.840Z,96150.16
2022-12-14T12:18:57.499Z,96152.31
2022-12-14T12:21:24.121Z,96160.31
2022-12-14T12:23:50.783Z,96164.75
2022-12-14T12:26:17.471Z,96170.09
2022-12-14T12:28:44.137Z,96164.81
2022-12-14T12:31:11.393Z,96158.28
2022-12-14T12:33:38.156Z,96155.44
2022-12-14T12:36:04.755Z,96147.91
2022-12-14T12:38:31.676Z,96148.53
2022-12-14T12:40:58.556Z,96145.72
2022-12-14T12:43:25.206Z,96151.13
2022-12-14T12:45:51.839Z,96144.91
2022-12-14T12:48:18.438Z,96135.53
2022-12-14T12:50:49.843Z,96130.53
2022-12-14T12:53:16.737Z,96133.91
2022-12-14T12:55:43.365Z,96124.50
2022-12-14T12:58:10.267Z,96119.84
2022-12-14T13:00:37.016Z,96124.91
2022-12-14T13:03:03.759Z,96123.00
2022-12-14T13:05:46.359Z,96126.81
2022-12-14T13:08:13.608Z,96125.78
2022-12-14T13:10:50.447Z,96119.84
2022-12-14T13:13:26.852Z,96115.19
2022-12-14T13:15:53.540Z,96113.03
2022-12-14T13:18:48.866Z,96104.06
2022-12-14T13:21:06.815Z,96091.75
2022-12-14T13:23:44.865Z,96104.31
2022-12-14T13:26:23.426Z,96104.84
2022-12-14T13:28:58.829Z,96103.19
2022-12-14T13:31:25.478Z,96096.69
2022-12-14T13:33:52.111Z,96099.91
2022-12-14T13:36:18.771Z,96098.53
2022-12-14T13:38:45.403Z,96097.75
2022-12-14T13:41:12.124Z,96093.53
2022-12-14T13:43:38.772Z,96099.72
2022-12-14T13:46:05.442Z,96097.56
2022-12-14T13:48:32.382Z,96103.94
2022-12-14T13:51:01.821Z,96114.28
2022-12-14T13:53:29.099Z,96117.84
2022-12-14T13:55:55.758Z,96125.88
2022-12-14T13:58:22.455Z,96118.94
2022-12-14T14:00:49.125Z,96120.19
2022-12-14T14:03:15.843Z,96126.56
2022-12-14T14:05:42.522Z,96126.59
2022-12-14T14:08:09.179Z,96135.13
2022-12-14T14:10:35.885Z,96147.72
2022-12-14T14:13:02.503Z,96151.63
2022-12-14T14:15:29.108Z,96153.34
2022-12-14T14:17:56.675Z,96150.09
2022-12-14T14:20:23.368Z,96151.41
2022-12-14T14:22:50.027Z,96142.88
2022-12-14T14:25:16.715Z,96140.63
2022-12-14T14:27:43.392Z,96141.28
2022-12-14T14:30:17.070Z,96140.13
2022-12-14T14:32:43.739Z,96143.47
2022-12-14T14:35:10.396Z,96138.97
2022-12-14T14:37:37.033Z,96146.09
2022-12-14T14:40:16.779Z,96128.41
2022-12-14T14:42:48.700Z,96121.13
2022-12-14T14:45:15.355Z,96114.50
2022-12-14T14:47:42.041Z,96107.97
2022-12-14T14:50:08.639Z,96097.56
2022-12-14T14:52:35.297Z,96103.72
2022-12-14T14:55:50.659Z,96096.84
2022-12-14T14:57:48.556Z,96093.72
2022-12-14T15:00:15.371Z,96093.25
2022-12-14T15:02:42.160Z,96090.66
2022-12-14T15:05:40.941Z,96092.44
2022-12-14T15:07:55.553Z,96092.66
2022-12-14T15:10:22.882Z,96081.56
2022-12-14T15:12:49.721Z,96085.63
2022-12-14T15:15:16.364Z,96079.25
2022-12-14T15:17:43.048Z,96087.50
2022-12-14T15:20:09.710Z,96083.09
2022-12-14T15:22:36.401Z,96085.63
2022-12-14T15:25:02.997Z,96085.72
2022-12-14T15:27:29.791Z,96092.22
2022-12-14T15:29:56.483Z,96092.16
2022-12-14T15:32:23.092Z,96086.47
2022-12-14T15:34:49.688Z,96099.59
2022-12-14T15:37:16.332Z,96093.47
2022-12-14T15:39:42.994Z,96089.44
2022-12-14T15:42:09.692Z,96087.72
2022-12-14T15:44:36.350Z,96086.31
2022-12-14T15:47:02.999Z,96078.13
2022-12-14T15:49:29.706Z,96078.13
2022-12-14T15:51:56.351Z,96072.84
2022-12-14T15:54:23.012Z,96064.75
2022-12-14T15:56:49.664Z,96063.47
2022-12-14T15:59:16.300Z,96061.38
2022-12-14T16:01:46.073Z,96056.31
2022-12-14T16:04:16.874Z,96044.72
2022-12-14T16:06:43.575Z,96041.97
2022-12-14T16:09:10.202Z,96029.38
2022-12-14T16:11:36.822Z,96017.59
2022-12-14T16:14:03.411Z,96014.78
2022-12-14T16:16:30.187Z,96009.69
2022-12-14T16:19:13.847Z,96016.22
2022-12-14T16:21:43.563Z,96024.31
2022-12-14T16:24:10.250Z,96017.22
2022-12-14T16:26:36.932Z,96030.28
2022-12-14T16:29:03.590Z,96031.34
2022-12-14T16:31:30.250Z,96033.09
2022-12-14T16:33:56.953Z,96040.38
2022-12-14T16:36:23.639Z,96037.88
2022-12-14T16:38:50.306Z,96039.94
2022-12-14T16:41:16.960Z,96033.59
2022-12-14T16:43:43.654Z,96045.44
2022-12-14T16:46:10.389Z,96044.94
2022-12-14T16:48:37.145Z,96049.38
2022-12-14T16:51:14.363Z,96061.50
2022-12-14T16:53:44.079Z,96055.38
2022-12-14T16:56:10.898Z,96050.25
2022-12-14T16:58:37.630Z,96055.00
2022-12-14T17:01:04.326Z,96050.25
2022-12-14T17:03:31.483Z,96060.28
2022-12-14T17:05:58.585Z,96052.16
2022-12-14T17:08:25.228Z,96054.81
2022-12-14T17:10:51.837Z,96050.78
2022-12-14T17:13:18.543Z,96052.75
2022-12-14T17:15:45.211Z,96053.06
2022-12-14T17:18:15.977Z,96040.09
2022-12-14T17:20:42.646Z,96037.19
2022-12-14T17:23:09.255Z,96036.53
2022-12-14T17:25:35.928Z,96042.28
2022-12-14T17:28:02.627Z,96037.09
2022-12-14T17:30:29.396Z,96032.91
2022-12-14T17:32:56.067Z,96035.38
2022-12-14T17:35:22.660Z,96035.19
2022-12-14T17:37:49.476Z,96033.72
2022-12-14T17:40:16.154Z,96030.69
2022-12-14T17:42:42.844Z,96027.41
2022-12-14T17:45:09.502Z,96024.53
2022-12-14T17:47:36.192Z,96023.69
2022-12-14T17:50:02.877Z,96019.31
2022-12-14T17:52:29.559Z,96018.69
2022-12-14T17:54:56.168Z,96026.28
2022-12-14T17:57:22.806Z,96030.69
2022-12-14T17:59:49.478Z,96025.84
2022-12-14T18:02:16.285Z,96031.66
2022-12-14T18:04:43.052Z,96036.84
2022-12-14T18:07:09.703Z,96036.50
2022-12-14T18:09:36.358Z,96028.88
2022-12-14T18:12:25.350Z,96030.78
2022-12-14T18:14:49.683Z,96019.47
2022-12-14T18:17:16.387Z,96022.69
2022-12-14T18:19:43.051Z,96012.31
2022-12-14T18:22:10.989Z,96010.72
2022-12-14T18:24:37.589Z,96012.69
2022-12-14T18:27:04.254Z,96020.97
2022-12-14T18:29:31.015Z,96022.31
2022-12-14T18:31:57.745Z,96017.06
2022-12-14T18:34:24.493Z,96013.63
2022-12-14T18:36:51.111Z,96013.63
2022-12-14T18:39:17.752Z,96022.00
2022-12-14T18:41:44.401Z,96023.09
2022-12-14T18:44:11.032Z,96026.25
2022-12-14T18:46:37.757Z,96022.56
2022-12-14T18:49:04.548Z,96017.03
2022-12-14T18:51:31.200Z,96026.06
2022-12-14T18:53:57.882Z,96026.41
2022-12-14T18:56:24.578Z,96027.19
2022-12-14T18:58:51.278Z,96025.91
2022-12-14T19:01:18.052Z,96031.56
2022-12-14T19:03:45.144Z,96024.13
2022-12-14T19:06:42.857Z,96020.09
2022-12-14T19:08:58.584Z,96016.38
2022-12-14T19:11:25.204Z,96023.09
2022-12-14T19:13:51.799Z,96026.72
2022-12-14T19:16:18.467Z,96046.25
2022-12-14T19:18:45.169Z,96051.59
2022-12-14T19:21:11.851Z,96053.78
2022-12-14T19:23:38.546Z,96048.78
2022-12-14T19:26:05.241Z,96039.97
2022-12-14T19:28:33.365Z,96038.88
2022-12-14T19:31:00.424Z,96036.94
2022-12-14T19:33:27.535Z,96043.50
2022-12-14T19:35:54.413Z,96035.69
2022-12-14T19:38:21.162Z,96039.28
2022-12-14T19:40:48.906Z,96039.63
2022-12-14T19:43:15.666Z,96048.31
2022-12-14T19:45:42.328Z,96041.50
2022-12-14T19:48:13.105Z,96028.69
2022-12-14T19:50:40.033Z,96032.94
2022-12-14T19:53:10.801Z,96029.19
2022-12-14T19:55:37.513Z,96030.34
2022-12-14T19:58:05.255Z,96041.59
2022-12-14T20:00:34.767Z,96044.50
2022-12-14T20:03:01.700Z,96035.41
2022-12-14T20:05:28.529Z,96041.09
2022-12-14T20:07:57.929Z,96047.41
2022-12-14T20:10:24.643Z,96047.19
2022-12-14T20:12:51.374Z,96048.78
2022-12-14T20:15:18.071Z,96041.25
2022-12-14T20:17:44.799Z,96048.38
2022-12-14T20:20:11.438Z,96067.16
2022-12-14T20:22:38.153Z,96057.47
2022-12-14T20:25:05.905Z,96061.53
2022-12-14T20:27:37.447Z,96063.31
2022-12-14T20:30:07.089Z,96045.47
2022-12-14T20:32:33.750Z,96037.34
2022-12-14T20:35:00.426Z,96048.59
2022-12-14T20:37:27.051Z,96049.72
2022-12-14T20:39:53.663Z,96052.75
2022-12-14T20:42:20.294Z,96037.84
2022-12-14T20:44:49.249Z,96039.25
2022-12-14T20:47:16.319Z,96047.03
2022-12-14T20:49:43.185Z,96062.88
2022-12-14T20:52:09.860Z,96059.69
2022-12-14T20:54:36.688Z,96060.97
2022-12-14T20:57:03.330Z,96043.38
2022-12-14T20:59:29.992Z,96020.84
2022-12-14T21:01:57.091Z,96023.31
2022-12-14T21:04:23.971Z,96039.16
2022-12-14T21:06:50.585Z,96053.75
2022-12-14T21:09:17.261Z,96065.06
2022-12-14T21:11:43.910Z,96061.50
2022-12-14T21:14:10.592Z,96047.44
2022-12-14T21:16:37.432Z,96050.81
2022-12-14T21:19:04.172Z,96045.66
2022-12-14T21:21:30.824Z,96040.13
2022-12-14T21:23:57.602Z,96029.44
2022-12-14T21:26:24.291Z,96048.75
2022-12-14T21:28:50.923Z,96044.50
2022-12-14T21:31:17.630Z,96047.44
2022-12-14T21:33:49.571Z,96050.53
2022-12-14T21:36:16.600Z,96052.16
2022-12-14T21:38:43.277Z,96052.47
2022-12-14T21:41:09.969Z,96049.88
2022-12-14T21:43:36.623Z,96047.44
2022-12-14T21:46:03.368Z,96042.13
2022-12-14T21:48:30.023Z,96030.28
2022-12-14T21:50:56.745Z,96042.75
2022-12-14T21:53:23.428Z,96044.06
2022-12-14T21:55:50.030Z,96026.88
2022-12-14T21:58:16.652Z,96036.63
2022-12-14T22:00:43.267Z,96036.63
2022-12-14T22:03:09.992Z,96035.13
2022-12-14T22:05:36.724Z,96022.38
2022-12-14T22:08:03.404Z,96036.63
2022-12-14T22:10:30.012Z,96038.72
2022-12-14T22:12:56.647Z,96028.19
2022-12-14T22:15:23.292Z,96023.34
2022-12-14T22:17:49.922Z,96014.88
2022-12-14T22:20:16.603Z,96022.00
2022-12-14T22:22:43.237Z,96017.13
2022-12-14T22:25:09.913Z,96019.06
2022-12-14T22:27:36.574Z,96022.13
2022-12-14T22:30:03.201Z,96024.28
2022-12-14T22:32:29.884Z,96031.41
2022-12-14T22:34:56.492Z,96031.72
2022-12-14T22:37:23.175Z,96023.63
2022-12-14T22:39:49.862Z,96026.22
2022-12-14T22:42:16.573Z,96036.09
2022-12-14T22:44:43.228Z,96037.53
2022-12-14T22:47:09.846Z,96042.19
2022-12-14T22:49:36.502Z,96044.72
2022-12-14T22:52:03.126Z,96043.28
2022-12-14T22:54:29.744Z,96041.66
2022-12-14T22:56:56.404Z,96024.75
2022-12-14T22:59:23.030Z,96022.38
2022-12-14T23:01:50.569Z,96028.72
2022-12-14T23:04:17.623Z,96023.91
2022-12-14T23:06:44.813Z,96033.03
2022-12-14T23:09:11.444Z,96033.75
2022-12-14T23:11:38.125Z,96036.25
2022-12-14T23:14:04.775Z,96042.63
2022-12-14T23:16:31.428Z,96044.25
2022-12-14T23:18:58.084Z,96053.97
2022-12-14T23:21:24.729Z,96060.31
2022-12-14T23:23:51.328Z,96049.63
2022-12-14T23:26:18.002Z,96052.88
2022-12-14T23:28:44.697Z,96052.59
2022-12-14T23:31:16.704Z,96048.41
2022-12-14T23:33:43.379Z,96050.41
2022-12-14T23:36:10.049Z,96049.69
2022-12-14T23:38:36.687Z,96051.13
2022-12-14T23:41:03.394Z,96050.22
2022-12-14T23:43:30.514Z,96049.13
2022-12-14T23:45:57.570Z,96041.69
2022-12-14T23:48:24.271Z,96040.41
2022-12-14T23:50:50.932Z,96055.66
2022-12-14T23:53:18.132Z,96054.88
2022-12-14T23:55:44.849Z,96055.50
2022-12-14T23:58:11.534Z,96056.66
